createdAt,value
2019-05-28T05:01:59.436Z,13.30
2019-05-28T05:04:29.034Z,13.40
2019-05-28T05:06:58.200Z,13.30
2019-05-28T05:09:27.444Z,13.40
2019-05-28T05:11:56.657Z,13.30
2019-05-28T05:14:25.922Z,13.30
2019-05-28T05:16:55.355Z,13.30
2019-05-28T05:19:24.792Z,13.30
2019-05-28T05:21:54.137Z,13.30
2019-05-28T05:24:23.680Z,13.30
2019-05-28T05:26:53.221Z,13.30
2019-05-28T05:29:23.610Z,13.40
2019-05-28T05:32:16.924Z,13.40
2019-05-28T05:34:50.251Z,13.40
2019-05-28T05:37:21.757Z,13.40
2019-05-28T05:39:55.440Z,13.40
2019-05-28T05:42:47.158Z,13.40
2019-05-28T05:45:16.630Z,13.40
2019-05-28T05:47:51.705Z,13.50
2019-05-28T05:50:21.050Z,13.50
2019-05-28T05:52:50.510Z,13.50
2019-05-28T05:55:19.905Z,13.60
2019-05-28T05:57:49.095Z,13.70
2019-05-28T06:00:18.368Z,13.70
2019-05-28T06:02:47.564Z,13.60
2019-05-28T06:05:17.077Z,13.60
2019-05-28T06:07:46.119Z,13.60
2019-05-28T06:10:16.267Z,13.60
2019-05-28T06:12:45.596Z,13.70
2019-05-28T06:15:14.978Z,13.70
2019-05-28T06:17:44.103Z,13.70
2019-05-28T06:20:13.756Z,13.70
2019-05-28T06:22:43.203Z,13.70
2019-05-28T06:25:13.151Z,13.70
2019-05-28T06:31:07.297Z,13.80
2019-05-28T06:33:56.598Z,13.80
2019-05-28T06:36:33.094Z,13.80
2019-05-28T06:39:02.426Z,13.90
2019-05-28T06:41:31.670Z,13.90
2019-05-28T06:44:00.868Z,13.90
2019-05-28T06:46:30.075Z,14.00
2019-05-28T06:48:59.275Z,14.00
2019-05-28T06:51:29.386Z,14.10
2019-05-28T06:53:58.817Z,14.10
2019-05-28T06:56:28.071Z,14.10
2019-05-28T06:58:57.386Z,14.20
2019-05-28T07:01:28.573Z,14.20
2019-05-28T07:24:59.543Z,14.30
2019-05-28T07:27:28.759Z,14.30
2019-05-28T07:30:09.922Z,14.30
2019-05-28T07:32:39.400Z,14.30
2019-05-28T07:38:41.211Z,14.50
2019-05-28T07:41:10.311Z,14.60
2019-05-28T07:43:39.937Z,14.60
2019-05-28T07:46:09.256Z,14.60
2019-05-28T07:48:38.698Z,14.60
2019-05-28T07:51:08.383Z,14.60
2019-05-28T07:53:40.363Z,14.60
2019-05-28T07:56:08.396Z,14.70
2019-05-28T07:58:37.702Z,14.70
2019-05-28T08:01:07.225Z,14.80
2019-05-28T08:03:36.461Z,14.90
2019-05-28T08:06:05.635Z,14.90
2019-05-28T08:08:35.042Z,15.00
2019-05-28T08:11:04.440Z,15.00
2019-05-28T08:13:40.848Z,15.00
2019-05-28T08:16:17.663Z,15.00
2019-05-28T08:18:36.080Z,15.00
2019-05-28T08:21:05.508Z,15.00
2019-05-28T08:23:34.722Z,15.00
2019-05-28T08:26:04.024Z,15.00
2019-05-28T08:28:33.359Z,15.00
2019-05-28T08:31:14.782Z,15.00
2019-05-28T08:33:33.781Z,15.00
2019-05-28T08:36:03.007Z,15.00
2019-05-28T08:38:32.487Z,15.00
2019-05-28T08:41:01.710Z,15.10
2019-05-28T08:43:30.884Z,15.10
2019-05-28T08:46:00.267Z,15.10
2019-05-28T08:48:29.441Z,15.20
2019-05-28T08:50:58.695Z,15.20
2019-05-28T08:53:27.825Z,15.30
2019-05-28T08:55:57.069Z,15.30
2019-05-28T08:58:26.403Z,15.40
2019-05-28T09:00:55.596Z,15.50
2019-05-28T09:03:24.739Z,15.50
2019-05-28T09:05:53.949Z,15.50
2019-05-28T09:08:37.899Z,15.60
2019-05-28T09:10:54.152Z,15.60
2019-05-28T09:13:23.329Z,15.80
2019-05-28T09:15:52.567Z,15.80
2019-05-28T09:18:21.908Z,15.80
2019-05-28T09:20:51.345Z,15.80
2019-05-28T09:23:20.732Z,15.80
2019-05-28T09:25:49.909Z,15.80
2019-05-28T09:28:29.304Z,15.80
2019-05-28T09:30:49.959Z,15.70
2019-05-28T09:33:19.386Z,15.70
2019-05-28T09:36:06.331Z,15.70
2019-05-28T09:38:19.633Z,15.80
2019-05-28T09:40:50.819Z,15.90
2019-05-28T09:43:19.977Z,15.90
2019-05-28T09:45:49.342Z,16.10
2019-05-28T09:48:18.667Z,16.20
2019-05-28T09:50:47.905Z,16.30
2019-05-28T09:53:17.044Z,16.40
2019-05-28T09:55:46.287Z,16.40
2019-05-28T09:58:15.558Z,16.50
2019-05-28T10:00:57.438Z,16.50
2019-05-28T10:03:16.461Z,16.50
2019-05-28T10:05:58.561Z,16.50
2019-05-28T10:08:16.459Z,16.50
2019-05-28T10:10:45.736Z,16.60
2019-05-28T10:13:15.005Z,16.70
2019-05-28T10:15:44.839Z,16.80
2019-05-28T10:18:14.504Z,16.90
2019-05-28T10:23:38.553Z,17.10
2019-05-28T10:26:11.559Z,17.10
2019-05-28T10:29:11.796Z,17.10
2019-05-28T10:32:07.727Z,17.10
2019-05-28T10:34:37.187Z,17.20
2019-05-28T10:37:06.918Z,17.20
2019-05-28T10:39:36.484Z,17.30
2019-05-28T10:42:06.033Z,17.40
2019-05-28T10:44:45.002Z,17.50
2019-05-28T10:47:11.969Z,17.60
2019-05-28T10:49:41.341Z,17.80
2019-05-28T10:52:38.578Z,17.90
2019-05-28T10:55:36.039Z,18.00
2019-05-28T10:58:05.855Z,18.10
2019-05-28T11:00:36.417Z,18.20
2019-05-28T11:03:05.824Z,18.20
2019-05-28T11:05:35.423Z,18.10
2019-05-28T11:08:04.998Z,18.10
2019-05-28T11:10:38.323Z,18.00
2019-05-28T11:13:08.853Z,18.00
2019-05-28T11:15:39.023Z,18.00
2019-05-28T11:18:08.431Z,18.00
2019-05-28T11:20:37.805Z,18.10
2019-05-28T11:23:07.196Z,18.30
2019-05-28T11:28:25.221Z,18.30
2019-05-28T11:30:54.684Z,18.30
2019-05-28T11:33:24.165Z,18.30
2019-05-28T11:35:53.590Z,18.20
2019-05-28T11:38:22.997Z,18.20
2019-05-28T11:40:52.486Z,18.20
2019-05-28T11:43:21.842Z,18.20
2019-05-28T11:45:51.113Z,18.10
2019-05-28T11:48:20.484Z,18.10
2019-05-28T11:50:52.505Z,18.00
2019-05-28T11:53:25.044Z,17.90
2019-05-28T11:55:54.394Z,17.80
2019-05-28T11:58:29.542Z,17.80
2019-05-28T12:01:05.913Z,17.70
2019-05-28T12:03:54.976Z,17.70
2019-05-28T12:06:29.476Z,17.70
2019-05-28T12:08:58.702Z,17.70
2019-05-28T12:11:28.509Z,17.70
2019-05-28T12:13:58.101Z,17.70
2019-05-28T12:16:27.442Z,17.70
2019-05-28T12:18:58.399Z,17.70
2019-05-28T12:21:28.026Z,17.60
2019-05-28T12:23:57.900Z,17.60
2019-05-28T12:26:29.457Z,17.60
2019-05-28T12:29:02.183Z,17.60
2019-05-28T12:31:35.294Z,17.70
2019-05-28T12:34:04.505Z,17.70
2019-05-28T12:36:33.945Z,17.70
2019-05-28T12:39:05.954Z,17.80
2019-05-28T12:41:35.812Z,17.80
2019-05-28T12:44:05.821Z,17.80
2019-05-28T12:46:36.773Z,18.00
2019-05-28T12:49:06.262Z,18.10
2019-05-28T12:51:37.308Z,18.30
2019-05-28T12:54:06.974Z,18.50
2019-05-28T12:56:36.494Z,18.70
2019-05-28T12:59:05.923Z,18.70
2019-05-28T13:01:35.418Z,18.70
2019-05-28T13:04:05.136Z,18.70
2019-05-28T13:06:34.784Z,18.80
2019-05-28T13:09:06.772Z,18.70
2019-05-28T13:11:36.156Z,18.70
2019-05-28T13:14:05.940Z,18.60
2019-05-28T13:16:35.788Z,18.60
2019-05-28T13:19:05.286Z,18.70
2019-05-28T13:21:34.801Z,18.70
2019-05-28T13:24:04.335Z,18.80
2019-05-28T13:26:33.871Z,18.80
2019-05-28T13:29:03.353Z,18.80
2019-05-28T13:31:36.280Z,18.80
2019-05-28T13:34:05.991Z,18.90
2019-05-28T13:36:35.462Z,18.90
2019-05-28T13:39:06.807Z,19.00
2019-05-28T13:41:36.472Z,19.10
2019-05-28T13:44:08.083Z,19.20
2019-05-28T13:46:37.193Z,19.30
2019-05-28T13:49:06.776Z,19.40
2019-05-28T13:51:36.289Z,19.40
2019-05-28T13:54:05.714Z,19.50
2019-05-28T13:56:35.415Z,19.60
2019-05-28T13:59:04.860Z,19.60
2019-05-28T14:01:34.330Z,19.60
2019-05-28T14:04:03.754Z,19.60
2019-05-28T14:06:33.045Z,19.60
2019-05-28T14:09:02.554Z,19.50
2019-05-28T14:11:32.051Z,19.50
2019-05-28T14:14:01.579Z,19.50
2019-05-28T14:16:30.971Z,19.50
2019-05-28T14:19:00.375Z,19.60
2019-05-28T14:21:29.761Z,19.60
2019-05-28T14:23:59.150Z,19.70
2019-05-28T14:26:28.813Z,19.70
2019-05-28T14:28:58.097Z,19.70
2019-05-28T14:31:27.500Z,19.70
2019-05-28T14:33:57.296Z,19.70
2019-05-28T14:36:26.884Z,19.70
2019-05-28T14:39:03.007Z,19.60
2019-05-28T14:41:27.825Z,19.50
2019-05-28T14:43:57.345Z,19.50
2019-05-28T14:46:26.908Z,19.40
2019-05-28T14:48:56.565Z,19.50
2019-05-28T14:51:25.943Z,19.50
2019-05-28T14:53:55.342Z,19.50
2019-05-28T14:56:24.733Z,19.50
2019-05-28T14:58:54.182Z,19.40
2019-05-28T15:01:29.833Z,19.40
2019-05-28T15:06:49.852Z,19.20
2019-05-28T15:09:21.501Z,19.10
2019-05-28T15:11:50.460Z,19.00
2019-05-28T15:14:23.339Z,19.00
2019-05-28T15:16:55.943Z,18.90
2019-05-28T15:19:25.764Z,18.90
2019-05-28T15:21:55.145Z,18.90
2019-05-28T15:24:24.400Z,18.90
2019-05-28T15:26:54.236Z,18.90
2019-05-28T15:29:23.650Z,18.90
2019-05-28T15:31:53.265Z,18.80
2019-05-28T15:34:22.802Z,18.80
2019-05-28T15:36:52.842Z,18.80
2019-05-28T15:39:38.226Z,18.80
2019-05-28T15:41:53.729Z,18.80
2019-05-28T15:44:23.135Z,18.80
2019-05-28T15:46:52.705Z,18.80
2019-05-28T15:49:25.244Z,18.80
2019-05-28T15:52:07.034Z,18.90
2019-05-28T15:54:25.870Z,18.90
2019-05-28T15:56:56.286Z,18.90
2019-05-28T15:59:26.039Z,18.90
2019-05-28T16:01:55.644Z,18.80
2019-05-28T16:04:24.987Z,18.80
2019-05-28T16:07:13.457Z,18.80
2019-05-28T16:09:55.751Z,18.80
2019-05-28T16:12:14.024Z,18.70
2019-05-28T16:14:43.464Z,18.60
2019-05-28T16:17:12.882Z,18.60
2019-05-28T16:19:42.464Z,18.50
2019-05-28T16:22:12.021Z,18.50
2019-05-28T16:24:41.514Z,18.50
2019-05-28T16:27:10.934Z,18.50
2019-05-28T16:29:40.445Z,18.50
2019-05-28T16:32:09.927Z,18.50
2019-05-28T16:34:39.926Z,18.50
2019-05-28T16:37:09.440Z,18.40
2019-05-28T16:39:38.861Z,18.30
2019-05-28T16:42:08.585Z,18.30
2019-05-28T16:44:37.996Z,18.20
2019-05-28T16:47:17.185Z,18.20
2019-05-28T16:49:38.611Z,18.20
2019-05-28T16:52:41.374Z,18.10
2019-05-28T16:55:17.875Z,18.10
2019-05-28T16:57:47.673Z,18.00
2019-05-28T17:00:23.467Z,17.90
2019-05-28T17:02:55.212Z,17.90
2019-05-28T17:05:27.498Z,17.90
2019-05-28T17:07:56.933Z,17.80
2019-05-28T17:10:32.787Z,17.80
2019-05-28T17:12:57.608Z,17.70
2019-05-28T17:15:27.063Z,17.70
2019-05-28T17:17:56.539Z,17.60
2019-05-28T17:20:26.223Z,17.50
2019-05-28T17:22:56.966Z,17.40
2019-05-28T17:25:27.364Z,17.30
2019-05-28T17:27:57.411Z,17.30
2019-05-28T17:30:26.907Z,17.20
2019-05-28T17:32:56.464Z,17.20
2019-05-28T17:35:25.905Z,17.10
2019-05-28T17:37:56.361Z,17.10
2019-05-28T17:40:25.671Z,17.10
2019-05-28T17:43:01.183Z,17.10
